CA-0161 weather

CLOSED King Ranch Airport
High River, Alberta, Canada

Public forecast

Using degrees Celsius for public forecast. Weather courtesy of forecast.io.

Closest aviation weather report (METAR) to King Ranch Airport

Closest report is Calgary International Airport, 30.9 nm (57.3 km) N. Retrieved 2019/12/12 21:00 UTC (10 minutes ago):

CYYC 122100Z 02011KT 15SM BKN055 BKN075 M09/M11 A2962 RMK SC6AC1 SLP103

Closest aviation forecast (TAF) to King Ranch Airport

Closest forecast is Calgary International Airport, 30.9 nm (57.3 km) N. Retrieved 2019/12/12 21:39 UTC (0 seconds ago):

TAF CYYC 122038Z 1221/1318 01008KT P6SM FEW010 BKN050 TEMPO 1221/1302 5SM BR BKN010 BECMG 1222/1224 30006KT FM130200 03006KT 5SM BR SCT004 OVC008 TEMPO 1302/1315 11/2SM BR OVC004 FM131500 VRB03KT P6SM OVC008 TEMPO 1315/1318 5SM -SN BR RMK NXT FCST BY 130000Z